Time;durP1;ratioP1;P1;durP2;ratioP2;P2;SDS_P1;SDS_P2;PMS_P1;PMS_P2;Temp;Humidity;BMP_temperature;BMP_pressure;BME280_temperature;BME280_humidity;BME280_pressure;Samples;Min_cycle;Max_cycle;Signal;HPM_P1;HPM_P2
2022/07/13 00:00:17;;;;;;;0.10;0.10;;;;;;;;;;5071735;28;20248;-69
2022/07/13 00:02:44;;;;;;;0.10;0.10;;;;;;;;;;5070050;28;20219;-69
2022/07/13 00:05:10;;;;;;;0.00;0.00;;;;;;;;;;5075200;28;20232;-68
2022/07/13 00:07:37;;;;;;;0.00;0.00;;;;;;;;;;5069367;28;20216;-69
2022/07/13 00:10:05;;;;;;;0.00;0.00;;;;;;;;;;5086324;28;20231;-69
2022/07/13 00:12:31;;;;;;;0.00;0.00;;;;;;;;;;5057854;28;20237;-69
2022/07/13 00:14:57;;;;;;;0.10;0.10;;;;;;;;;;5085942;28;20210;-68
2022/07/13 00:17:24;;;;;;;0.00;0.00;;;;;;;;;;5057657;28;20241;-69
2022/07/13 00:19:50;;;;;;;0.10;0.10;;;;;;;;;;5085750;28;20211;-69
2022/07/13 00:22:17;;;;;;;0.00;0.00;;;;;;;;;;5057751;28;20234;-69
2022/07/13 00:24:43;;;;;;;0.00;0.00;;;;;;;;;;5086077;28;20490;-70
2022/07/13 00:27:10;;;;;;;0.00;0.00;;;;;;;;;;5057687;28;20241;-68
2022/07/13 00:29:37;;;;;;;0.00;0.00;;;;;;;;;;5085979;28;20204;-69
2022/07/13 00:32:03;;;;;;;0.00;0.00;;;;;;;;;;5057567;28;20262;-69
2022/07/13 00:34:30;;;;;;;0.00;0.00;;;;;;;;;;5085343;28;20459;-68
2022/07/13 00:36:57;;;;;;;0.00;0.00;;;;;;;;;;5058728;28;20452;-68
2022/07/13 00:39:23;;;;;;;0.00;0.00;;;;;;;;;;5084486;28;20269;-69
2022/07/13 00:41:49;;;;;;;0.00;0.00;;;;;;;;;;5059856;28;20242;-67
2022/07/13 00:44:17;;;;;;;0.00;0.00;;;;;;;;;;5083157;28;20206;-68
2022/07/13 00:46:48;;;;;;;0.10;0.10;;;;;;;;;;5060450;28;20472;-69
2022/07/13 00:49:14;;;;;;;0.00;0.00;;;;;;;;;;5083057;28;20259;-69
2022/07/13 00:51:41;;;;;;;0.00;0.00;;;;;;;;;;5060630;28;20285;-69
2022/07/13 00:54:07;;;;;;;0.00;0.00;;;;;;;;;;5081601;28;20269;-69
2022/07/13 00:56:34;;;;;;;0.00;0.00;;;;;;;;;;5061604;28;20250;-70
2022/07/13 00:59:00;;;;;;;0.00;0.00;;;;;;;;;;5080551;28;20233;-69
2022/07/13 01:01:28;;;;;;;0.00;0.00;;;;;;;;;;5062702;28;20242;-67
2022/07/13 01:03:54;;;;;;;0.00;0.00;;;;;;;;;;5079403;28;20304;-69
2022/07/13 01:06:21;;;;;;;0.00;0.00;;;;;;;;;;5063620;28;20312;-67
2022/07/13 01:08:47;;;;;;;0.08;0.08;;;;;;;;;;5078705;28;20205;-67
2022/07/13 01:11:14;;;;;;;0.00;0.00;;;;;;;;;;5063912;28;20244;-68
2022/07/13 01:13:41;;;;;;;0.05;0.05;;;;;;;;;;5077508;28;20227;-67
2022/07/13 01:16:08;;;;;;;0.00;0.00;;;;;;;;;;5065664;28;20246;-67
2022/07/13 01:18:36;;;;;;;0.00;0.00;;;;;;;;;;5076529;28;20244;-67
2022/07/13 01:21:03;;;;;;;0.00;0.00;;;;;;;;;;5065928;28;20245;-67
2022/07/13 01:23:31;;;;;;;0.10;0.10;;;;;;;;;;5075826;28;20219;-67
2022/07/13 01:25:58;;;;;;;0.00;0.00;;;;;;;;;;5066578;28;20247;-67
2022/07/13 01:28:24;;;;;;;0.00;0.00;;;;;;;;;;5075125;28;20423;-68
2022/07/13 01:30:51;;;;;;;0.10;0.10;;;;;;;;;;5067799;28;20243;-69
2022/07/13 01:33:17;;;;;;;0.00;0.00;;;;;;;;;;5073494;28;20206;-68
2022/07/13 01:35:44;;;;;;;0.00;0.00;;;;;;;;;;5068488;28;20299;-67
2022/07/13 01:38:10;;;;;;;0.00;0.00;;;;;;;;;;5072802;28;20577;-67
2022/07/13 01:40:39;;;;;;;0.00;0.00;;;;;;;;;;5069239;28;20262;-68
2022/07/13 01:43:06;;;;;;;0.00;0.00;;;;;;;;;;5071884;28;20428;-67
2022/07/13 01:45:32;;;;;;;0.00;0.00;;;;;;;;;;5070200;28;20245;-68
2022/07/13 01:47:58;;;;;;;0.10;0.10;;;;;;;;;;5070846;28;20240;-67
2022/07/13 01:50:27;;;;;;;0.00;0.00;;;;;;;;;;5071190;28;20524;-68
2022/07/13 01:52:53;;;;;;;0.00;0.00;;;;;;;;;;5069902;28;20241;-68
2022/07/13 01:55:20;;;;;;;0.00;0.00;;;;;;;;;;5071925;28;20513;-67
2022/07/13 01:57:47;;;;;;;0.05;0.05;;;;;;;;;;5068750;28;20263;-67
2022/07/13 02:00:15;;;;;;;0.00;0.00;;;;;;;;;;5072493;28;20210;-67
2022/07/13 02:02:42;;;;;;;0.00;0.00;;;;;;;;;;5067835;28;20260;-67
2022/07/13 02:05:09;;;;;;;0.00;0.00;;;;;;;;;;5073317;28;20204;-68
2022/07/13 02:07:36;;;;;;;0.00;0.00;;;;;;;;;;5066709;28;20444;-67
2022/07/13 02:10:02;;;;;;;0.00;0.00;;;;;;;;;;5083765;28;20228;-67
2022/07/13 02:12:28;;;;;;;0.08;0.08;;;;;;;;;;5055419;28;20297;-67
2022/07/13 02:14:56;;;;;;;0.00;0.00;;;;;;;;;;5083551;28;20207;-67
2022/07/13 02:17:23;;;;;;;0.10;0.10;;;;;;;;;;5055543;28;20534;-67
2022/07/13 02:19:49;;;;;;;0.00;0.00;;;;;;;;;;5083485;28;20246;-68
2022/07/13 02:22:15;;;;;;;0.00;0.00;;;;;;;;;;5055022;28;20296;-68
2022/07/13 02:24:42;;;;;;;0.05;0.05;;;;;;;;;;5083281;28;20349;-69
2022/07/13 02:27:08;;;;;;;0.10;0.10;;;;;;;;;;5055369;28;20249;-67
2022/07/13 02:29:34;;;;;;;0.00;0.00;;;;;;;;;;5083410;28;20298;-68
2022/07/13 02:32:02;;;;;;;0.10;0.10;;;;;;;;;;5055683;28;20301;-68
2022/07/13 02:34:29;;;;;;;0.10;0.10;;;;;;;;;;5082768;28;20280;-68
2022/07/13 02:36:55;;;;;;;0.10;0.10;;;;;;;;;;5056519;28;20304;-68
2022/07/13 02:39:21;;;;;;;0.00;0.00;;;;;;;;;;5081690;28;20205;-67
2022/07/13 02:41:49;;;;;;;0.00;0.00;;;;;;;;;;5057732;28;20261;-67
2022/07/13 02:44:15;;;;;;;0.05;0.05;;;;;;;;;;5080700;28;20228;-68
2022/07/13 02:46:42;;;;;;;0.00;0.00;;;;;;;;;;5058481;28;20242;-68
2022/07/13 02:49:10;;;;;;;0.00;0.00;;;;;;;;;;5079647;28;20480;-67
2022/07/13 02:51:36;;;;;;;0.00;0.00;;;;;;;;;;5059098;28;20353;-68
2022/07/13 02:54:02;;;;;;;0.00;0.00;;;;;;;;;;5078627;28;20205;-67
2022/07/13 02:56:29;;;;;;;0.00;0.00;;;;;;;;;;5059917;28;20243;-67
2022/07/13 02:58:55;;;;;;;0.00;0.00;;;;;;;;;;5077897;28;20467;-67
2022/07/13 03:01:21;;;;;;;0.00;0.00;;;;;;;;;;5061027;28;20251;-67
2022/07/13 03:03:48;;;;;;;0.00;0.00;;;;;;;;;;5076366;28;20204;-68
2022/07/13 03:06:15;;;;;;;0.10;0.10;;;;;;;;;;5061980;28;20242;-67
2022/07/13 03:08:42;;;;;;;0.00;0.00;;;;;;;;;;5075574;28;20204;-67
2022/07/13 03:11:08;;;;;;;0.00;0.00;;;;;;;;;;5063054;28;20301;-67
2022/07/13 03:13:35;;;;;;;0.00;0.00;;;;;;;;;;5074148;28;20268;-68
2022/07/13 03:16:01;;;;;;;0.10;0.10;;;;;;;;;;5063881;28;20471;-67
2022/07/13 03:18:27;;;;;;;0.10;0.10;;;;;;;;;;5073545;28;20402;-67
2022/07/13 03:20:54;;;;;;;0.00;0.00;;;;;;;;;;5064829;28;20309;-68
2022/07/13 03:23:21;;;;;;;0.00;0.00;;;;;;;;;;5072113;28;20206;-67
2022/07/13 03:25:48;;;;;;;0.00;0.00;;;;;;;;;;5065856;28;20424;-68
2022/07/13 03:28:14;;;;;;;0.00;0.00;;;;;;;;;;5071248;28;20204;-67
2022/07/13 03:30:40;;;;;;;0.00;0.00;;;;;;;;;;5067084;28;20386;-67
2022/07/13 03:33:07;;;;;;;0.00;0.00;;;;;;;;;;5069913;28;20230;-68
2022/07/13 03:35:33;;;;;;;0.05;0.05;;;;;;;;;;5067661;28;20287;-68
2022/07/13 03:38:00;;;;;;;0.00;0.00;;;;;;;;;;5069042;28;20446;-67
2022/07/13 03:40:27;;;;;;;0.00;0.00;;;;;;;;;;5068978;28;21416;-67
2022/07/13 03:42:54;;;;;;;0.00;0.00;;;;;;;;;;5067808;28;20198;-67
2022/07/13 03:45:20;;;;;;;0.00;0.00;;;;;;;;;;5069807;28;20212;-68
2022/07/13 03:47:46;;;;;;;0.10;0.10;;;;;;;;;;5067215;28;20228;-67
2022/07/13 03:50:13;;;;;;;0.00;0.00;;;;;;;;;;5070899;28;20203;-67
2022/07/13 03:52:39;;;;;;;0.00;0.00;;;;;;;;;;5065592;28;20223;-67
2022/07/13 03:55:07;;;;;;;0.00;0.00;;;;;;;;;;5077127;28;20209;-68
2022/07/13 03:57:35;;;;;;;0.00;0.00;;;;;;;;;;5064469;28;20259;-67
2022/07/13 04:00:01;;;;;;;0.00;0.00;;;;;;;;;;5082193;28;20204;-68
2022/07/13 04:02:28;;;;;;;0.00;0.00;;;;;;;;;;5053883;28;20480;-66
2022/07/13 04:04:54;;;;;;;0.00;0.00;;;;;;;;;;5081936;28;20205;-66
2022/07/13 04:07:21;;;;;;;0.10;0.10;;;;;;;;;;5053796;28;20245;-67
2022/07/13 04:09:47;;;;;;;0.00;0.00;;;;;;;;;;5082292;28;20501;-67
2022/07/13 04:12:13;;;;;;;0.10;0.10;;;;;;;;;;5053918;28;20244;-67
2022/07/13 04:14:41;;;;;;;0.10;0.10;;;;;;;;;;5082090;28;20277;-67
2022/07/13 04:17:07;;;;;;;0.00;0.00;;;;;;;;;;5053783;28;20417;-67
2022/07/13 04:19:33;;;;;;;0.00;0.00;;;;;;;;;;5081951;28;20283;-67
2022/07/13 04:22:00;;;;;;;0.10;0.10;;;;;;;;;;5054595;28;20253;-66
2022/07/13 04:24:26;;;;;;;0.00;0.00;;;;;;;;;;5081221;28;20208;-68
2022/07/13 04:26:52;;;;;;;0.00;0.00;;;;;;;;;;5055719;28;20248;-68
2022/07/13 04:29:21;;;;;;;0.00;0.00;;;;;;;;;;5080319;28;20512;-67
2022/07/13 04:31:49;;;;;;;0.05;0.05;;;;;;;;;;5056233;28;20511;-68
2022/07/13 04:34:16;;;;;;;0.10;0.10;;;;;;;;;;5079773;28;20295;-68
2022/07/13 04:36:43;;;;;;;0.00;0.00;;;;;;;;;;5057058;28;20289;-67
2022/07/13 04:39:09;;;;;;;0.00;0.00;;;;;;;;;;5078362;28;20205;-69
2022/07/13 04:41:35;;;;;;;0.00;0.00;;;;;;;;;;5058104;28;20461;-67
2022/07/13 04:44:02;;;;;;;0.00;0.00;;;;;;;;;;5077391;28;20207;-67
2022/07/13 04:46:31;;;;;;;0.00;0.00;;;;;;;;;;5060058;28;20243;-67
2022/07/13 04:48:58;;;;;;;0.10;0.10;;;;;;;;;;5080351;28;20205;-68
2022/07/13 04:51:26;;;;;;;0.00;0.00;;;;;;;;;;5062923;28;20317;-67
2022/07/13 04:53:52;;;;;;;0.05;0.05;;;;;;;;;;5079765;28;20234;-68
2022/07/13 04:56:18;;;;;;;0.00;0.00;;;;;;;;;;5064082;28;20310;-67
2022/07/13 04:58:45;;;;;;;0.00;0.00;;;;;;;;;;5078294;28;20206;-67
2022/07/13 05:01:11;;;;;;;0.10;0.10;;;;;;;;;;5064844;28;20242;-67
2022/07/13 05:03:37;;;;;;;0.00;0.00;;;;;;;;;;5077377;28;20203;-66
2022/07/13 05:06:06;;;;;;;0.10;0.10;;;;;;;;;;5066006;28;20242;-67
2022/07/13 05:08:32;;;;;;;0.08;0.08;;;;;;;;;;5076127;28;20281;-67
2022/07/13 05:10:58;;;;;;;0.08;0.08;;;;;;;;;;5066984;28;20240;-66
2022/07/13 05:13:25;;;;;;;0.00;0.00;;;;;;;;;;5075352;28;20330;-66
2022/07/13 05:15:51;;;;;;;0.00;0.00;;;;;;;;;;5067967;28;20287;-67
2022/07/13 05:18:17;;;;;;;0.00;0.00;;;;;;;;;;5073858;28;20224;-67
2022/07/13 05:20:43;;;;;;;0.10;0.10;;;;;;;;;;5068770;28;20248;-66
2022/07/13 05:23:11;;;;;;;0.10;0.10;;;;;;;;;;5072786;28;20208;-68
2022/07/13 05:25:37;;;;;;;0.00;0.00;;;;;;;;;;5069700;28;20241;-67
2022/07/13 05:28:04;;;;;;;0.03;0.03;;;;;;;;;;5071950;28;20389;-67
2022/07/13 05:30:30;;;;;;;0.10;0.10;;;;;;;;;;5070214;28;20242;-67
2022/07/13 05:32:57;;;;;;;0.00;0.00;;;;;;;;;;5070744;28;20232;-67
2022/07/13 05:35:23;;;;;;;0.00;0.00;;;;;;;;;;5071815;28;20279;-66
2022/07/13 05:37:50;;;;;;;0.05;0.05;;;;;;;;;;5069128;28;20203;-66
2022/07/13 05:40:18;;;;;;;0.00;0.00;;;;;;;;;;5072414;28;20244;-68
2022/07/13 05:42:45;;;;;;;0.00;0.00;;;;;;;;;;5068490;28;20210;-67
2022/07/13 05:45:11;;;;;;;0.00;0.00;;;;;;;;;;5073216;28;20289;-68
2022/07/13 05:47:37;;;;;;;0.00;0.00;;;;;;;;;;5067424;28;20197;-67
2022/07/13 05:50:04;;;;;;;0.00;0.00;;;;;;;;;;5084241;28;20276;-67
2022/07/13 05:52:30;;;;;;;0.00;0.00;;;;;;;;;;5055932;28;20406;-67
2022/07/13 05:54:57;;;;;;;0.00;0.00;;;;;;;;;;5083990;28;20274;-68
2022/07/13 05:57:24;;;;;;;0.00;0.00;;;;;;;;;;5056127;28;20646;-67
2022/07/13 05:59:51;;;;;;;0.00;0.00;;;;;;;;;;5084293;28;20375;-67
2022/07/13 06:02:17;;;;;;;0.00;0.00;;;;;;;;;;5055886;28;20241;-68
2022/07/13 06:04:43;;;;;;;0.00;0.00;;;;;;;;;;5084180;28;20443;-68
2022/07/13 06:07:10;;;;;;;0.00;0.00;;;;;;;;;;5056376;28;20321;-67
2022/07/13 06:09:36;;;;;;;0.05;0.05;;;;;;;;;;5084416;28;20393;-68
2022/07/13 06:12:02;;;;;;;0.00;0.00;;;;;;;;;;5056340;28;20297;-68
2022/07/13 06:14:30;;;;;;;0.00;0.00;;;;;;;;;;5083606;28;20237;-68
2022/07/13 06:16:56;;;;;;;0.00;0.00;;;;;;;;;;5057037;28;20249;-67
2022/07/13 06:19:23;;;;;;;0.10;0.10;;;;;;;;;;5082990;28;20426;-67
2022/07/13 06:21:49;;;;;;;0.00;0.00;;;;;;;;;;5058310;28;20484;-67
2022/07/13 06:24:15;;;;;;;0.00;0.00;;;;;;;;;;5081514;28;20202;-66
2022/07/13 06:26:42;;;;;;;0.00;0.00;;;;;;;;;;5058778;28;20559;-67
2022/07/13 06:29:08;;;;;;;0.00;0.00;;;;;;;;;;5080516;28;20281;-66
2022/07/13 06:31:36;;;;;;;0.00;0.00;;;;;;;;;;5060059;28;20305;-66
2022/07/13 06:34:02;;;;;;;0.00;0.00;;;;;;;;;;5079085;28;20232;-66
2022/07/13 06:36:28;;;;;;;0.00;0.00;;;;;;;;;;5061201;28;20302;-68
2022/07/13 06:38:55;;;;;;;0.00;0.00;;;;;;;;;;5078550;28;20227;-67
2022/07/13 06:41:21;;;;;;;0.00;0.00;;;;;;;;;;5061967;28;20341;-67
2022/07/13 06:43:47;;;;;;;0.10;0.10;;;;;;;;;;5076893;28;20200;-66
2022/07/13 06:46:14;;;;;;;0.03;0.03;;;;;;;;;;5062616;28;20500;-66
2022/07/13 06:48:42;;;;;;;0.05;0.05;;;;;;;;;;5075981;28;20404;-66
2022/07/13 06:51:08;;;;;;;0.00;0.00;;;;;;;;;;5063632;28;20439;-66
2022/07/13 06:53:34;;;;;;;0.00;0.00;;;;;;;;;;5075044;28;20292;-66
2022/07/13 06:56:01;;;;;;;0.00;0.00;;;;;;;;;;5064827;28;20306;-67
2022/07/13 06:58:27;;;;;;;0.00;0.00;;;;;;;;;;5074241;28;20217;-66
2022/07/13 07:00:53;;;;;;;0.00;0.00;;;;;;;;;;5065806;28;20489;-67
2022/07/13 07:03:20;;;;;;;0.10;0.10;;;;;;;;;;5072660;28;20200;-66
2022/07/13 07:05:47;;;;;;;0.00;0.00;;;;;;;;;;5066706;28;20485;-66
2022/07/13 07:08:14;;;;;;;0.00;0.00;;;;;;;;;;5071764;28;20231;-67
2022/07/13 07:10:40;;;;;;;0.10;0.10;;;;;;;;;;5049250;28;20249;-66
2022/07/13 07:13:07;;;;;;;0.00;0.00;;;;;;;;;;5070391;28;20426;-67
2022/07/13 07:15:33;;;;;;;0.00;0.00;;;;;;;;;;5068433;28;20307;-67
2022/07/13 07:18:00;;;;;;;0.00;0.00;;;;;;;;;;5069398;28;20231;-67
2022/07/13 07:20:26;;;;;;;0.00;0.00;;;;;;;;;;5069574;28;20239;-68
2022/07/13 07:22:54;;;;;;;0.00;0.00;;;;;;;;;;5067953;28;20256;-69
2022/07/13 07:25:20;;;;;;;0.00;0.00;;;;;;;;;;5070143;28;20211;-68
2022/07/13 07:27:47;;;;;;;0.00;0.00;;;;;;;;;;5067397;28;20197;-66
2022/07/13 07:30:13;;;;;;;0.00;0.00;;;;;;;;;;5071264;28;20210;-66
2022/07/13 07:32:40;;;;;;;0.00;0.00;;;;;;;;;;5066229;28;20270;-67
2022/07/13 07:35:07;;;;;;;0.10;0.10;;;;;;;;;;5071812;28;20228;-67
2022/07/13 07:37:34;;;;;;;0.00;0.00;;;;;;;;;;5065127;28;20221;-69
2022/07/13 07:40:02;;;;;;;0.00;0.00;;;;;;;;;;5082665;28;20218;-68
2022/07/13 07:42:29;;;;;;;0.08;0.08;;;;;;;;;;5054439;28;20246;-68
2022/07/13 07:44:56;;;;;;;0.00;0.00;;;;;;;;;;5082807;28;20271;-69
2022/07/13 07:47:25;;;;;;;0.00;0.00;;;;;;;;;;5054312;28;20253;-67
2022/07/13 07:49:51;;;;;;;0.00;0.00;;;;;;;;;;5082338;28;20205;-68
2022/07/13 07:52:18;;;;;;;0.00;0.00;;;;;;;;;;5054227;28;20302;-67
2022/07/13 07:54:45;;;;;;;0.03;0.03;;;;;;;;;;5082359;28;20249;-67
2022/07/13 07:57:13;;;;;;;0.00;0.00;;;;;;;;;;5054421;28;20299;-67
2022/07/13 07:59:39;;;;;;;0.00;0.00;;;;;;;;;;5082441;28;20392;-68
2022/07/13 08:02:06;;;;;;;0.00;0.00;;;;;;;;;;5054164;28;20576;-68
2022/07/13 08:04:32;;;;;;;0.00;0.00;;;;;;;;;;5082663;28;20202;-69
2022/07/13 08:06:58;;;;;;;0.00;0.00;;;;;;;;;;5055218;28;20394;-69
2022/07/13 08:09:25;;;;;;;0.00;0.00;;;;;;;;;;5081585;28;20231;-68
2022/07/13 08:11:51;;;;;;;0.00;0.00;;;;;;;;;;5056081;28;20262;-67
2022/07/13 08:14:21;;;;;;;0.00;0.00;;;;;;;;;;5080206;28;20290;-69
2022/07/13 08:16:47;;;;;;;0.00;0.00;;;;;;;;;;5056679;28;20298;-68
2022/07/13 08:19:14;;;;;;;0.10;0.10;;;;;;;;;;5079523;28;20211;-68
2022/07/13 08:21:40;;;;;;;0.00;0.00;;;;;;;;;;5059091;28;20239;-68
2022/07/13 08:24:07;;;;;;;0.00;0.00;;;;;;;;;;5082624;28;20275;-67
2022/07/13 08:26:33;;;;;;;0.00;0.00;;;;;;;;;;5062634;28;20303;-67
2022/07/13 08:29:00;;;;;;;0.00;0.00;;;;;;;;;;5081520;28;20211;-68
2022/07/13 08:31:28;;;;;;;0.00;0.00;;;;;;;;;;5063135;28;20462;-68
2022/07/13 08:39:23;;;;;;;0.00;0.00;;;;;;;;;;5084352;28;20191;-67
2022/07/13 08:41:50;;;;;;;0.00;0.00;;;;;;;;;;5059655;28;20240;-67
2022/07/13 08:44:17;;;;;;;0.00;0.00;;;;;;;;;;5083655;28;20508;-68
2022/07/13 08:46:44;;;;;;;0.00;0.00;;;;;;;;;;5060725;28;20239;-67
2022/07/13 08:49:11;;;;;;;0.00;0.00;;;;;;;;;;5082384;28;20270;-69
2022/07/13 08:51:39;;;;;;;0.00;0.00;;;;;;;;;;5061485;28;20318;-68
2022/07/13 08:54:05;;;;;;;0.00;0.00;;;;;;;;;;5082080;28;20231;-68
2022/07/13 08:56:32;;;;;;;0.00;0.00;;;;;;;;;;5062130;28;20410;-68
2022/07/13 08:58:59;;;;;;;0.00;0.00;;;;;;;;;;5080866;28;20211;-68
2022/07/13 09:01:25;;;;;;;0.00;0.00;;;;;;;;;;5063180;28;20428;-67
2022/07/13 09:03:53;;;;;;;0.00;0.00;;;;;;;;;;5079632;28;20208;-70
2022/07/13 09:06:38;;;;;;;0.00;0.00;;;;;;;;;;5063825;28;20287;-68
2022/07/13 09:09:04;;;;;;;0.00;0.00;;;;;;;;;;5081389;28;20430;-68
2022/07/13 09:11:31;;;;;;;0.00;0.00;;;;;;;;;;5061867;28;20262;-68
2022/07/13 09:13:57;;;;;;;0.00;0.00;;;;;;;;;;5080494;28;20415;-67
2022/07/13 09:16:24;;;;;;;0.00;0.00;;;;;;;;;;5063137;28;20307;-69
2022/07/13 09:18:53;;;;;;;0.00;0.00;;;;;;;;;;5078934;28;20255;-68
2022/07/13 09:21:20;;;;;;;0.00;0.00;;;;;;;;;;5063412;28;20244;-66
2022/07/13 09:23:48;;;;;;;0.00;0.00;;;;;;;;;;5078687;28;20200;-67
2022/07/13 09:26:16;;;;;;;0.00;0.00;;;;;;;;;;5064336;28;20422;-67
2022/07/13 09:28:43;;;;;;;0.00;0.00;;;;;;;;;;5077749;28;20226;-68
2022/07/13 09:31:09;;;;;;;0.00;0.00;;;;;;;;;;5065051;28;20325;-69
2022/07/13 09:33:37;;;;;;;0.00;0.00;;;;;;;;;;5076092;28;20281;-68
2022/07/13 09:36:11;;;;;;;0.00;0.00;;;;;;;;;;5065786;28;20240;-69
2022/07/13 09:38:38;;;;;;;0.00;0.00;;;;;;;;;;5076593;28;20241;-69
2022/07/13 09:41:18;;;;;;;0.00;0.00;;;;;;;;;;5065398;28;20369;-68
2022/07/13 09:46:48;;;;;;;0.00;0.00;;;;;;;;;;5060450;28;20245;-68
2022/07/13 09:49:16;;;;;;;0.00;0.00;;;;;;;;;;5082041;28;20191;-68
2022/07/13 09:51:45;;;;;;;0.00;0.00;;;;;;;;;;5060218;28;20239;-68
2022/07/13 09:54:12;;;;;;;0.00;0.00;;;;;;;;;;5081099;28;20234;-68
2022/07/13 09:56:39;;;;;;;0.00;0.00;;;;;;;;;;5060347;28;20239;-67
2022/07/13 09:59:07;;;;;;;0.00;0.00;;;;;;;;;;5080412;28;20211;-68
2022/07/13 10:01:34;;;;;;;0.00;0.00;;;;;;;;;;5060761;28;20274;-67
2022/07/13 10:04:00;;;;;;;0.00;0.00;;;;;;;;;;5079576;28;20199;-66
2022/07/13 10:06:28;;;;;;;0.00;0.00;;;;;;;;;;5061854;28;20303;-67
2022/07/13 10:08:56;;;;;;;0.00;0.00;;;;;;;;;;5078497;28;20204;-68
2022/07/13 10:11:23;;;;;;;0.00;0.00;;;;;;;;;;5062294;28;20299;-67
2022/07/13 10:13:49;;;;;;;0.00;0.00;;;;;;;;;;5078096;28;20270;-68
2022/07/13 10:16:16;;;;;;;0.00;0.00;;;;;;;;;;5063205;28;20294;-68
2022/07/13 10:18:43;;;;;;;0.10;0.10;;;;;;;;;;5076526;28;20258;-68
2022/07/13 10:21:13;;;;;;;0.00;0.00;;;;;;;;;;5064064;28;20240;-67
2022/07/13 10:23:41;;;;;;;0.00;0.00;;;;;;;;;;5076234;28;20208;-67
2022/07/13 10:26:19;;;;;;;0.00;0.00;;;;;;;;;;5064502;28;20239;-67
2022/07/13 10:29:01;;;;;;;0.00;0.00;;;;;;;;;;5077188;28;20195;-66
2022/07/13 10:31:31;;;;;;;0.00;0.00;;;;;;;;;;5060860;28;20239;-68
2022/07/13 10:33:57;;;;;;;0.00;0.00;;;;;;;;;;5078368;28;20314;-66
2022/07/13 10:36:42;;;;;;;0.00;0.00;;;;;;;;;;5061608;28;20311;-67
2022/07/13 10:39:10;;;;;;;0.00;0.00;;;;;;;;;;5080257;28;20226;-66
2022/07/13 10:41:55;;;;;;;0.00;0.00;;;;;;;;;;5059590;28;20274;-69
2022/07/13 10:44:35;;;;;;;0.00;0.00;;;;;;;;;;5081087;28;20253;-69
2022/07/13 10:47:03;;;;;;;0.00;0.00;;;;;;;;;;5055923;28;20244;-68
2022/07/13 10:49:44;;;;;;;0.00;0.00;;;;;;;;;;5083153;28;20207;-67
2022/07/13 10:52:29;;;;;;;0.00;0.00;;;;;;;;;;5055236;28;20485;-68
2022/07/13 10:55:14;;;;;;;0.00;0.00;;;;;;;;;;5083236;28;20560;-67
2022/07/13 10:57:42;;;;;;;0.00;0.00;;;;;;;;;;5063013;28;20195;-67
2022/07/13 11:00:18;;;;;;;0.00;0.00;;;;;;;;;;5053289;28;20207;-67
2022/07/13 11:02:47;;;;;;;0.00;0.00;;;;;;;;;;5082195;28;20196;-66
2022/07/13 11:05:14;;;;;;;0.00;0.00;;;;;;;;;;5072157;28;20275;-67
2022/07/13 11:07:41;;;;;;;0.00;0.00;;;;;;;;;;5081821;28;20520;-67
2022/07/13 11:10:18;;;;;;;0.05;0.05;;;;;;;;;;5072380;28;20267;-68
2022/07/13 11:13:01;;;;;;;0.00;0.00;;;;;;;;;;5067180;28;20191;-67
2022/07/13 11:15:42;;;;;;;0.00;0.00;;;;;;;;;;5067062;28;20454;-67
2022/07/13 11:18:25;;;;;;;0.00;0.00;;;;;;;;;;5070388;28;20223;-68
2022/07/13 11:20:55;;;;;;;0.00;0.00;;;;;;;;;;5065789;28;20410;-68
2022/07/13 11:26:08;;;;;;;0.00;0.00;;;;;;;;;;5063555;28;20258;-69
2022/07/13 11:28:37;;;;;;;0.00;0.00;;;;;;;;;;5074561;28;20203;-67
2022/07/13 11:31:05;;;;;;;0.00;0.00;;;;;;;;;;5063869;28;20566;-67
2022/07/13 11:33:31;;;;;;;0.00;0.00;;;;;;;;;;5073983;28;20433;-67
2022/07/13 11:35:59;;;;;;;0.00;0.00;;;;;;;;;;5064493;28;20246;-68
2022/07/13 11:38:26;;;;;;;0.00;0.00;;;;;;;;;;5072640;28;20203;-67
2022/07/13 11:40:53;;;;;;;0.00;0.00;;;;;;;;;;5065158;28;20239;-68
2022/07/13 11:43:19;;;;;;;0.00;0.00;;;;;;;;;;5072232;28;20192;-66
2022/07/13 11:45:45;;;;;;;0.00;0.00;;;;;;;;;;5066454;28;20303;-67
2022/07/13 11:48:15;;;;;;;0.00;0.00;;;;;;;;;;5070665;28;20281;-65
2022/07/13 11:50:45;;;;;;;0.00;0.00;;;;;;;;;;5066967;28;20240;-66
2022/07/13 11:53:20;;;;;;;0.00;0.00;;;;;;;;;;5070719;28;20196;-73
2022/07/13 11:55:50;;;;;;;0.00;0.00;;;;;;;;;;5068400;28;20475;-74
2022/07/13 11:58:24;;;;;;;0.00;0.00;;;;;;;;;;5075784;28;20410;-73
2022/07/13 12:00:51;;;;;;;0.00;0.00;;;;;;;;;;5070153;28;20244;-73
2022/07/13 12:03:29;;;;;;;0.00;0.00;;;;;;;;;;5076149;28;20348;-75
2022/07/13 12:05:59;;;;;;;0.00;0.00;;;;;;;;;;5069338;28;20239;-75
2022/07/13 12:08:25;;;;;;;0.00;0.00;;;;;;;;;;5077265;28;20203;-74
2022/07/13 12:10:51;;;;;;;0.00;0.00;;;;;;;;;;5069571;28;20260;-73
2022/07/13 12:13:18;;;;;;;0.00;0.00;;;;;;;;;;5075845;28;20207;-74
2022/07/13 12:15:44;;;;;;;0.00;0.00;;;;;;;;;;5070589;28;20269;-74
2022/07/13 12:18:12;;;;;;;0.00;0.00;;;;;;;;;;5075026;28;20413;-75
2022/07/13 12:20:40;;;;;;;0.00;0.00;;;;;;;;;;5071373;28;20246;-73
2022/07/13 12:23:07;;;;;;;0.00;0.00;;;;;;;;;;5074025;28;20207;-73
2022/07/13 12:25:34;;;;;;;0.00;0.00;;;;;;;;;;5071877;28;20240;-76
2022/07/13 12:28:01;;;;;;;0.00;0.00;;;;;;;;;;5073039;28;20203;-75
2022/07/13 12:30:28;;;;;;;0.00;0.00;;;;;;;;;;5072626;28;20240;-74
2022/07/13 12:32:55;;;;;;;0.00;0.00;;;;;;;;;;5071955;28;20203;-75
2022/07/13 12:35:21;;;;;;;0.00;0.00;;;;;;;;;;5073128;28;20227;-75
2022/07/13 12:37:54;;;;;;;0.00;0.00;;;;;;;;;;5071001;28;20203;-75
2022/07/13 12:40:40;;;;;;;0.00;0.00;;;;;;;;;;5073070;28;20273;-75
2022/07/13 12:43:06;;;;;;;0.00;0.00;;;;;;;;;;5073765;28;20402;-77
2022/07/13 12:45:34;;;;;;;0.00;0.00;;;;;;;;;;5071811;28;20260;-74
2022/07/13 12:48:00;;;;;;;0.08;0.08;;;;;;;;;;5086156;28;20363;-74
2022/07/13 12:50:27;;;;;;;0.00;0.00;;;;;;;;;;5071568;28;20845;-76
2022/07/13 12:53:02;;;;;;;0.00;0.00;;;;;;;;;;5071716;28;20203;-75
2022/07/13 12:55:29;;;;;;;0.05;0.05;;;;;;;;;;5072093;28;20593;-75
2022/07/13 12:57:55;;;;;;;0.00;0.00;;;;;;;;;;5071740;28;20278;-76
2022/07/13 13:00:26;;;;;;;0.00;0.00;;;;;;;;;;5072650;28;20207;-75
2022/07/13 13:02:52;;;;;;;0.03;0.03;;;;;;;;;;5070934;28;20317;-75
2022/07/13 13:05:19;;;;;;;0.00;0.00;;;;;;;;;;5073018;28;20206;-75
2022/07/13 13:07:45;;;;;;;0.00;0.00;;;;;;;;;;5069376;28;20196;-76
2022/07/13 13:10:13;;;;;;;0.00;0.00;;;;;;;;;;5074374;28;20202;-77
2022/07/13 13:12:40;;;;;;;0.00;0.00;;;;;;;;;;5069081;28;20278;-74
2022/07/13 13:15:07;;;;;;;0.00;0.00;;;;;;;;;;5074431;28;20219;-77
2022/07/13 13:17:33;;;;;;;0.00;0.00;;;;;;;;;;5067864;28;20223;-73
2022/07/13 13:20:08;;;;;;;0.00;0.00;;;;;;;;;;5085198;28;20445;-75
2022/07/13 13:22:35;;;;;;;0.00;0.00;;;;;;;;;;5012636;28;20213;-76
2022/07/13 13:25:03;;;;;;;0.00;0.00;;;;;;;;;;5022736;28;20202;-74
2022/07/13 13:27:34;;;;;;;0.00;0.00;;;;;;;;;;5006773;28;20407;-77
2022/07/13 13:32:50;;;;;;;0.00;0.00;;;;;;;;;;5007328;28;20205;-81
2022/07/13 13:35:16;;;;;;;0.00;0.00;;;;;;;;;;5010690;28;20279;-74
2022/07/13 13:37:45;;;;;;;0.00;0.00;;;;;;;;;;5008086;28;20205;-74
2022/07/13 13:40:12;;;;;;;0.00;0.00;;;;;;;;;;5011223;28;20281;-75
2022/07/13 13:42:40;;;;;;;0.00;0.00;;;;;;;;;;5007327;28;20411;-75
2022/07/13 13:45:07;;;;;;;0.00;0.00;;;;;;;;;;5012140;28;20401;-75
2022/07/13 13:47:34;;;;;;;0.00;0.00;;;;;;;;;;5006457;28;20209;-75
2022/07/13 13:50:00;;;;;;;0.00;0.00;;;;;;;;;;5022207;28;20500;-74
2022/07/13 13:52:27;;;;;;;0.08;0.08;;;;;;;;;;4995747;28;20241;-73
2022/07/13 13:54:53;;;;;;;0.00;0.00;;;;;;;;;;5084261;28;20227;-74
2022/07/13 13:57:20;;;;;;;0.00;0.00;;;;;;;;;;5056150;28;20239;-74
2022/07/13 13:59:48;;;;;;;0.00;0.00;;;;;;;;;;5084108;28;20275;-74
2022/07/13 14:02:14;;;;;;;0.00;0.00;;;;;;;;;;5055596;28;20244;-73
2022/07/13 14:04:43;;;;;;;0.00;0.00;;;;;;;;;;5083947;28;20203;-73
2022/07/13 14:07:09;;;;;;;0.00;0.00;;;;;;;;;;5055711;28;20334;-75
2022/07/13 14:09:36;;;;;;;0.00;0.00;;;;;;;;;;5083752;28;20242;-74
2022/07/13 14:12:03;;;;;;;0.00;0.00;;;;;;;;;;5056154;28;20244;-75
2022/07/13 14:14:30;;;;;;;0.00;0.00;;;;;;;;;;5083377;28;20574;-76
2022/07/13 14:16:57;;;;;;;0.00;0.00;;;;;;;;;;5056867;28;20427;-76
2022/07/13 14:19:24;;;;;;;0.00;0.00;;;;;;;;;;5081634;28;20266;-75
2022/07/13 14:21:51;;;;;;;0.00;0.00;;;;;;;;;;5057897;28;20339;-74
2022/07/13 14:24:17;;;;;;;0.00;0.00;;;;;;;;;;5081989;28;20196;-72
2022/07/13 14:26:44;;;;;;;0.00;0.00;;;;;;;;;;5058817;28;20265;-74
2022/07/13 14:29:10;;;;;;;0.00;0.00;;;;;;;;;;5080864;28;20276;-73
2022/07/13 14:31:37;;;;;;;0.00;0.00;;;;;;;;;;5059352;28;20251;-72
2022/07/13 14:34:04;;;;;;;0.00;0.00;;;;;;;;;;5079304;28;20203;-72
2022/07/13 14:36:31;;;;;;;0.00;0.00;;;;;;;;;;5061046;28;20240;-73
2022/07/13 14:38:58;;;;;;;0.00;0.00;;;;;;;;;;5078525;28;20394;-73
2022/07/13 14:41:27;;;;;;;0.00;0.00;;;;;;;;;;5061297;28;20243;-75
2022/07/13 14:43:54;;;;;;;0.00;0.00;;;;;;;;;;5077649;28;20226;-73
2022/07/13 14:46:22;;;;;;;0.00;0.00;;;;;;;;;;5061563;28;20239;-73
2022/07/13 14:48:49;;;;;;;0.00;0.00;;;;;;;;;;5076620;28;20245;-76
2022/07/13 14:51:17;;;;;;;0.00;0.00;;;;;;;;;;5062081;28;20350;-73
2022/07/13 14:53:44;;;;;;;0.00;0.00;;;;;;;;;;5075784;28;20207;-77
2022/07/13 14:56:10;;;;;;;0.00;0.00;;;;;;;;;;5062685;28;20259;-73
2022/07/13 14:58:37;;;;;;;0.00;0.00;;;;;;;;;;5074506;28;20208;-74